sensor_id;sensor_type;location;lat;lon;timestamp;P1;durP1;ratioP1;P2;durP2;ratioP2
55663;SDS011;41540;57.880;12.164;2023-04-30T00:02:56;4.22;;;2.38;;
55663;SDS011;41540;57.880;12.164;2023-04-30T00:12:56;3.90;;;2.78;;
55663;SDS011;41540;57.880;12.164;2023-04-30T00:22:56;7.15;;;1.95;;
55663;SDS011;41540;57.880;12.164;2023-04-30T00:32:57;5.90;;;2.22;;
55663;SDS011;41540;57.880;12.164;2023-04-30T00:42:57;4.13;;;1.65;;
55663;SDS011;41540;57.880;12.164;2023-04-30T00:52:57;3.05;;;1.65;;
55663;SDS011;41540;57.880;12.164;2023-04-30T01:02:58;2.58;;;1.73;;
55663;SDS011;41540;57.880;12.164;2023-04-30T01:13:03;4.57;;;2.90;;
55663;SDS011;41540;57.880;12.164;2023-04-30T01:33:12;4.57;;;1.75;;
55663;SDS011;41540;57.880;12.164;2023-04-30T01:53:32;3.88;;;2.30;;
55663;SDS011;41540;57.880;12.164;2023-04-30T02:03:37;4.75;;;2.28;;
55663;SDS011;41540;57.880;12.164;2023-04-30T02:13:37;3.70;;;2.75;;
55663;SDS011;41540;57.880;12.164;2023-04-30T02:23:38;2.80;;;2.08;;
55663;SDS011;41540;57.880;12.164;2023-04-30T02:33:38;6.45;;;2.25;;
55663;SDS011;41540;57.880;12.164;2023-04-30T02:43:39;2.42;;;2.20;;
55663;SDS011;41540;57.880;12.164;2023-04-30T02:53:39;2.17;;;1.55;;
55663;SDS011;41540;57.880;12.164;2023-04-30T03:03:39;4.72;;;1.92;;
55663;SDS011;41540;57.880;12.164;2023-04-30T03:13:40;2.03;;;1.88;;
55663;SDS011;41540;57.880;12.164;2023-04-30T03:23:40;2.67;;;2.35;;
55663;SDS011;41540;57.880;12.164;2023-04-30T03:33:40;3.42;;;2.38;;
55663;SDS011;41540;57.880;12.164;2023-04-30T03:43:41;2.22;;;1.77;;
55663;SDS011;41540;57.880;12.164;2023-04-30T03:53:41;3.88;;;2.15;;
55663;SDS011;41540;57.880;12.164;2023-04-30T04:03:41;2.72;;;1.45;;
55663;SDS011;41540;57.880;12.164;2023-04-30T04:13:41;1.48;;;1.38;;
55663;SDS011;41540;57.880;12.164;2023-04-30T04:23:42;1.70;;;1.60;;
55663;SDS011;41540;57.880;12.164;2023-04-30T04:33:43;2.77;;;1.63;;
55663;SDS011;41540;57.880;12.164;2023-04-30T04:43:43;2.90;;;1.60;;
55663;SDS011;41540;57.880;12.164;2023-04-30T04:53:43;1.30;;;1.20;;
55663;SDS011;41540;57.880;12.164;2023-04-30T05:03:43;1.42;;;1.33;;
55663;SDS011;41540;57.880;12.164;2023-04-30T05:13:44;1.33;;;1.15;;
55663;SDS011;41540;57.880;12.164;2023-04-30T05:23:47;2.45;;;1.10;;
55663;SDS011;41540;57.880;12.164;2023-04-30T05:33:48;2.88;;;1.20;;
55663;SDS011;41540;57.880;12.164;2023-04-30T05:43:48;1.10;;;0.80;;
55663;SDS011;41540;57.880;12.164;2023-04-30T05:53:48;2.50;;;1.30;;
55663;SDS011;41540;57.880;12.164;2023-04-30T06:03:48;1.75;;;1.25;;
55663;SDS011;41540;57.880;12.164;2023-04-30T06:13:49;2.73;;;1.07;;
55663;SDS011;41540;57.880;12.164;2023-04-30T06:23:49;3.13;;;1.52;;
55663;SDS011;41540;57.880;12.164;2023-04-30T06:33:50;2.57;;;1.47;;
55663;SDS011;41540;57.880;12.164;2023-04-30T06:43:51;1.90;;;1.20;;
55663;SDS011;41540;57.880;12.164;2023-04-30T06:53:51;2.15;;;1.10;;
55663;SDS011;41540;57.880;12.164;2023-04-30T07:03:52;5.75;;;1.35;;
55663;SDS011;41540;57.880;12.164;2023-04-30T07:13:53;3.00;;;1.20;;
55663;SDS011;41540;57.880;12.164;2023-04-30T07:23:53;1.83;;;1.08;;
55663;SDS011;41540;57.880;12.164;2023-04-30T07:33:54;2.80;;;1.50;;
55663;SDS011;41540;57.880;12.164;2023-04-30T07:43:55;2.47;;;1.13;;
55663;SDS011;41540;57.880;12.164;2023-04-30T07:53:55;4.63;;;1.55;;
55663;SDS011;41540;57.880;12.164;2023-04-30T08:03:55;1.97;;;1.47;;
55663;SDS011;41540;57.880;12.164;2023-04-30T08:13:55;2.83;;;1.40;;
55663;SDS011;41540;57.880;12.164;2023-04-30T08:23:56;2.38;;;1.30;;
55663;SDS011;41540;57.880;12.164;2023-04-30T08:33:56;1.30;;;1.17;;
55663;SDS011;41540;57.880;12.164;2023-04-30T08:43:56;2.88;;;1.50;;
55663;SDS011;41540;57.880;12.164;2023-04-30T08:54:00;2.30;;;1.08;;
55663;SDS011;41540;57.880;12.164;2023-04-30T09:04:02;1.08;;;0.98;;
55663;SDS011;41540;57.880;12.164;2023-04-30T09:14:03;2.22;;;1.50;;
55663;SDS011;41540;57.880;12.164;2023-04-30T09:24:03;3.95;;;1.70;;
55663;SDS011;41540;57.880;12.164;2023-04-30T09:34:04;7.95;;;1.60;;
55663;SDS011;41540;57.880;12.164;2023-04-30T09:44:08;1.98;;;1.20;;
55663;SDS011;41540;57.880;12.164;2023-04-30T09:54:28;1.63;;;1.25;;
55663;SDS011;41540;57.880;12.164;2023-04-30T10:04:29;2.90;;;0.95;;
55663;SDS011;41540;57.880;12.164;2023-04-30T10:14:31;3.70;;;1.30;;
55663;SDS011;41540;57.880;12.164;2023-04-30T10:24:33;4.10;;;1.23;;
55663;SDS011;41540;57.880;12.164;2023-04-30T10:34:58;1.77;;;1.45;;
55663;SDS011;41540;57.880;12.164;2023-04-30T10:44:54;3.55;;;1.65;;
55663;SDS011;41540;57.880;12.164;2023-04-30T10:54:55;1.02;;;0.90;;
55663;SDS011;41540;57.880;12.164;2023-04-30T11:15:06;2.30;;;1.45;;
55663;SDS011;41540;57.880;12.164;2023-04-30T11:25:10;6.90;;;1.58;;
55663;SDS011;41540;57.880;12.164;2023-04-30T11:35:12;5.43;;;1.67;;
55663;SDS011;41540;57.880;12.164;2023-04-30T11:45:13;7.43;;;1.50;;
55663;SDS011;41540;57.880;12.164;2023-04-30T11:55:17;1.50;;;1.33;;
55663;SDS011;41540;57.880;12.164;2023-04-30T12:05:24;2.47;;;1.60;;
55663;SDS011;41540;57.880;12.164;2023-04-30T12:15:25;4.07;;;1.20;;
55663;SDS011;41540;57.880;12.164;2023-04-30T12:25:26;5.85;;;1.38;;
55663;SDS011;41540;57.880;12.164;2023-04-30T12:35:28;1.45;;;1.35;;
55663;SDS011;41540;57.880;12.164;2023-04-30T12:45:44;3.65;;;1.40;;
55663;SDS011;41540;57.880;12.164;2023-04-30T12:56:05;2.67;;;1.60;;
55663;SDS011;41540;57.880;12.164;2023-04-30T13:06:05;5.13;;;1.70;;
55663;SDS011;41540;57.880;12.164;2023-04-30T13:16:06;6.10;;;2.30;;
55663;SDS011;41540;57.880;12.164;2023-04-30T13:26:06;3.70;;;1.48;;
55663;SDS011;41540;57.880;12.164;2023-04-30T13:36:06;8.90;;;1.95;;
55663;SDS011;41540;57.880;12.164;2023-04-30T13:46:07;2.65;;;1.70;;
55663;SDS011;41540;57.880;12.164;2023-04-30T13:56:07;6.77;;;2.13;;
55663;SDS011;41540;57.880;12.164;2023-04-30T14:06:07;3.28;;;1.55;;
55663;SDS011;41540;57.880;12.164;2023-04-30T14:16:08;1.90;;;1.40;;
55663;SDS011;41540;57.880;12.164;2023-04-30T14:26:08;2.65;;;1.52;;
55663;SDS011;41540;57.880;12.164;2023-04-30T14:36:09;3.08;;;1.70;;
55663;SDS011;41540;57.880;12.164;2023-04-30T14:46:09;4.93;;;2.10;;
55663;SDS011;41540;57.880;12.164;2023-04-30T14:56:11;11.80;;;2.10;;
55663;SDS011;41540;57.880;12.164;2023-04-30T15:06:12;1.83;;;1.50;;
55663;SDS011;41540;57.880;12.164;2023-04-30T15:16:12;5.82;;;2.08;;
55663;SDS011;41540;57.880;12.164;2023-04-30T15:26:13;2.92;;;1.60;;
55663;SDS011;41540;57.880;12.164;2023-04-30T15:36:13;2.10;;;1.45;;
55663;SDS011;41540;57.880;12.164;2023-04-30T15:46:13;3.88;;;1.88;;
55663;SDS011;41540;57.880;12.164;2023-04-30T15:56:14;4.25;;;1.90;;
55663;SDS011;41540;57.880;12.164;2023-04-30T16:06:14;6.00;;;2.65;;
55663;SDS011;41540;57.880;12.164;2023-04-30T16:16:15;9.52;;;2.92;;
55663;SDS011;41540;57.880;12.164;2023-04-30T16:26:15;9.10;;;3.22;;
55663;SDS011;41540;57.880;12.164;2023-04-30T16:36:18;13.13;;;3.07;;
55663;SDS011;41540;57.880;12.164;2023-04-30T16:46:19;14.32;;;3.13;;
55663;SDS011;41540;57.880;12.164;2023-04-30T16:56:19;7.05;;;2.88;;
55663;SDS011;41540;57.880;12.164;2023-04-30T17:06:20;10.52;;;3.85;;
55663;SDS011;41540;57.880;12.164;2023-04-30T17:16:21;16.10;;;3.55;;
55663;SDS011;41540;57.880;12.164;2023-04-30T17:26:21;28.67;;;3.30;;
55663;SDS011;41540;57.880;12.164;2023-04-30T17:36:22;19.58;;;4.18;;
55663;SDS011;41540;57.880;12.164;2023-04-30T17:46:23;10.57;;;3.78;;
55663;SDS011;41540;57.880;12.164;2023-04-30T17:56:24;17.52;;;4.15;;
55663;SDS011;41540;57.880;12.164;2023-04-30T18:06:25;19.25;;;4.30;;
55663;SDS011;41540;57.880;12.164;2023-04-30T18:16:25;8.20;;;3.75;;
55663;SDS011;41540;57.880;12.164;2023-04-30T18:26:25;15.93;;;4.03;;
55663;SDS011;41540;57.880;12.164;2023-04-30T18:36:29;17.38;;;3.58;;
55663;SDS011;41540;57.880;12.164;2023-04-30T18:46:29;9.95;;;4.68;;
55663;SDS011;41540;57.880;12.164;2023-04-30T18:56:29;9.90;;;3.88;;
55663;SDS011;41540;57.880;12.164;2023-04-30T19:06:30;12.35;;;4.30;;
55663;SDS011;41540;57.880;12.164;2023-04-30T19:16:32;11.77;;;5.28;;
55663;SDS011;41540;57.880;12.164;2023-04-30T19:26:32;14.73;;;4.68;;
55663;SDS011;41540;57.880;12.164;2023-04-30T19:36:35;9.25;;;5.22;;
55663;SDS011;41540;57.880;12.164;2023-04-30T19:46:38;12.75;;;4.60;;
55663;SDS011;41540;57.880;12.164;2023-04-30T19:56:41;8.65;;;4.75;;
55663;SDS011;41540;57.880;12.164;2023-04-30T20:06:41;19.73;;;4.68;;
55663;SDS011;41540;57.880;12.164;2023-04-30T20:16:42;9.20;;;4.57;;
55663;SDS011;41540;57.880;12.164;2023-04-30T20:26:42;19.40;;;5.22;;
55663;SDS011;41540;57.880;12.164;2023-04-30T20:36:43;15.35;;;4.45;;
55663;SDS011;41540;57.880;12.164;2023-04-30T20:46:43;18.65;;;5.30;;
55663;SDS011;41540;57.880;12.164;2023-04-30T20:56:44;11.88;;;5.07;;
55663;SDS011;41540;57.880;12.164;2023-04-30T21:06:46;9.73;;;4.05;;
55663;SDS011;41540;57.880;12.164;2023-04-30T21:16:46;5.00;;;3.45;;
55663;SDS011;41540;57.880;12.164;2023-04-30T21:26:46;11.98;;;4.50;;
55663;SDS011;41540;57.880;12.164;2023-04-30T21:36:47;14.65;;;4.60;;
55663;SDS011;41540;57.880;12.164;2023-04-30T21:46:47;17.83;;;6.13;;
55663;SDS011;41540;57.880;12.164;2023-04-30T21:56:48;7.00;;;3.80;;
55663;SDS011;41540;57.880;12.164;2023-04-30T22:06:50;16.10;;;5.15;;
55663;SDS011;41540;57.880;12.164;2023-04-30T22:16:51;9.50;;;4.00;;
55663;SDS011;41540;57.880;12.164;2023-04-30T22:26:51;16.10;;;4.40;;
55663;SDS011;41540;57.880;12.164;2023-04-30T22:36:51;11.52;;;4.53;;
55663;SDS011;41540;57.880;12.164;2023-04-30T22:46:52;5.80;;;3.75;;
55663;SDS011;41540;57.880;12.164;2023-04-30T22:56:53;10.52;;;4.20;;
55663;SDS011;41540;57.880;12.164;2023-04-30T23:06:53;12.80;;;4.22;;
55663;SDS011;41540;57.880;12.164;2023-04-30T23:16:53;8.52;;;2.42;;
55663;SDS011;41540;57.880;12.164;2023-04-30T23:26:56;5.90;;;3.47;;
55663;SDS011;41540;57.880;12.164;2023-04-30T23:36:57;8.02;;;2.88;;
55663;SDS011;41540;57.880;12.164;2023-04-30T23:46:57;13.40;;;4.05;;
55663;SDS011;41540;57.880;12.164;2023-04-30T23:56:59;8.38;;;3.78;;
